Terminal Aerodrome Forecast
Issued by NWS

Current Version | Previous Version | Text Only | Print | Product List | Glossary On
Versions: 1 2 3 4 5 6 7 8 9 10 11 12 13 14 15 16 17 18 19 20 21 22 23 24 25 26 27 28 29 30 31 32 33 34 35 36 37 38 39 40 41 42 43 44 45 46 47 48
000
FTUS44 KHGX 200701 AAA
TAFCXO
TAF AMD
KCXO 200701Z 2007/2106 13003KT 4SM BR SCT250
     FM201300 17004KT P6SM SCT250
     FM201700 16010KT P6SM VCSH SCT040
     FM210300 VRB03KT P6SM BKN250=

USA.gov is the U.S. government's official web portal to all federal, state and local government web resources and services.